Time;durP1;ratioP1;P1;durP2;ratioP2;P2;SDS_P1;SDS_P2;PMS_P1;PMS_P2;Temp;Humidity;BMP_temperature;BMP_pressure;BME280_temperature;BME280_humidity;BME280_pressure;Samples;Min_cycle;Max_cycle;Signal;HPM_P1;HPM_P2
2022/06/14 00:01:22;;;;;;;;;;;25.70;41.00;;;;;;1542719;76;719;-65
2022/06/14 00:03:31;;;;;;;;;;;25.80;41.00;;;;;;1537171;76;1945;-65
2022/06/14 00:05:33;;;;;;;;;;;25.80;41.10;;;;;;1540048;76;643;-65
2022/06/14 00:07:35;;;;;;;;;;;25.80;41.00;;;;;;1537699;76;662;-67
2022/06/14 00:09:36;;;;;;;;;;;25.80;41.10;;;;;;1538941;76;1160;-64
2022/06/14 00:11:39;;;;;;;;;;;25.70;41.10;;;;;;1535595;76;730;-64
2022/06/14 00:13:40;;;;;;;;;;;25.80;41.10;;;;;;1538933;76;694;-65
2022/06/14 00:15:44;;;;;;;;;;;25.80;41.10;;;;;;1540608;76;712;-65
2022/06/14 00:17:46;;;;;;;;;;;25.80;41.10;;;;;;1527663;76;626;-66
2022/06/14 00:19:47;;;;;;;;;;;25.70;41.20;;;;;;1541571;76;1196;-65
2022/06/14 00:21:50;;;;;;;;;;;25.80;41.20;;;;;;1537311;76;734;-63
2022/06/14 00:23:51;;;;;;;;;;;25.80;41.20;;;;;;1539701;76;1919;-66
2022/06/14 00:25:54;;;;;;;;;;;25.70;41.30;;;;;;1539301;76;749;-64
2022/06/14 00:27:56;;;;;;;;;;;25.80;41.30;;;;;;1540109;76;761;-65
2022/06/14 00:29:58;;;;;;;;;;;25.70;41.30;;;;;;1542469;76;1117;-66
2022/06/14 00:32:00;;;;;;;;;;;25.70;41.30;;;;;;1542066;76;666;-67
2022/06/14 00:34:01;;;;;;;;;;;25.70;41.40;;;;;;1533622;76;690;-67
2022/06/14 00:36:04;;;;;;;;;;;25.70;41.40;;;;;;1540750;76;767;-65
2022/06/14 00:38:06;;;;;;;;;;;25.70;41.50;;;;;;1535990;76;820;-65
2022/06/14 00:40:09;;;;;;;;;;;25.70;41.50;;;;;;1539624;76;1097;-65
2022/06/14 00:42:12;;;;;;;;;;;25.70;41.50;;;;;;1530616;76;758;-66
2022/06/14 00:44:15;;;;;;;;;;;25.70;41.40;;;;;;1542760;76;1947;-66
2022/06/14 00:46:18;;;;;;;;;;;25.70;41.40;;;;;;1540024;76;733;-65
2022/06/14 00:48:24;;;;;;;;;;;25.70;41.40;;;;;;1534847;76;1160;-67
2022/06/14 00:50:27;;;;;;;;;;;25.70;41.50;;;;;;1552072;71;229422;-67
2022/06/14 00:52:40;;;;;;;;;;;25.60;41.60;;;;;;1542604;75;1530;-68
2022/06/14 00:54:42;;;;;;;;;;;25.70;41.50;;;;;;1553044;75;672;-67
2022/06/14 00:56:51;;;;;;;;;;;25.70;41.50;;;;;;1544330;75;683;-68
2022/06/14 00:58:55;;;;;;;;;;;25.70;41.70;;;;;;1561192;75;664;-69
2022/06/14 01:01:08;;;;;;;;;;;25.60;41.60;;;;;;1534693;76;736;-67
2022/06/14 01:03:11;;;;;;;;;;;25.60;41.70;;;;;;1518080;76;1987;-68
2022/06/14 01:05:14;;;;;;;;;;;25.60;41.70;;;;;;1520805;76;1916;-67
2022/06/14 01:07:17;;;;;;;;;;;25.70;41.70;;;;;;1528114;76;757;-67
2022/06/14 01:09:24;;;;;;;;;;;25.60;41.70;;;;;;1530292;76;1142;-67
2022/06/14 01:11:32;;;;;;;;;;;25.50;41.70;;;;;;1480412;79;701;-69
2022/06/14 01:13:34;;;;;;;;;;;25.50;41.70;;;;;;1523589;77;654;-67
2022/06/14 01:15:36;;;;;;;;;;;25.60;41.70;;;;;;1504064;78;659;-69
2022/06/14 01:17:42;;;;;;;;;;;25.60;41.80;;;;;;1535277;76;766;-68
2022/06/14 01:19:44;;;;;;;;;;;25.70;41.80;;;;;;1530691;76;1177;-67
2022/06/14 01:21:53;;;;;;;;;;;25.60;41.80;;;;;;1531236;76;717;-68
2022/06/14 01:23:54;;;;;;;;;;;25.60;41.80;;;;;;1491268;78;1932;-67
2022/06/14 01:25:58;;;;;;;;;;;25.60;41.80;;;;;;1552731;76;654;-67
2022/06/14 01:28:00;;;;;;;;;;;25.60;41.80;;;;;;1542079;76;1026;-67
2022/06/14 01:30:06;;;;;;;;;;;25.60;41.80;;;;;;1542232;76;1193;-67
2022/06/14 01:32:09;;;;;;;;;;;25.50;41.80;;;;;;1535531;76;1120;-67
2022/06/14 01:34:11;;;;;;;;;;;25.50;41.80;;;;;;1539776;76;709;-67
2022/06/14 01:36:14;;;;;;;;;;;25.60;41.80;;;;;;1542406;76;708;-67
2022/06/14 01:38:16;;;;;;;;;;;25.50;41.80;;;;;;1544781;76;641;-67
2022/06/14 01:40:18;;;;;;;;;;;25.60;42.00;;;;;;1540801;76;1149;-68
2022/06/14 01:42:24;;;;;;;;;;;25.60;41.80;;;;;;1525446;76;776;-68
2022/06/14 01:44:34;;;;;;;;;;;25.60;41.90;;;;;;1526803;76;1940;-69
2022/06/14 01:46:43;;;;;;;;;;;25.50;41.90;;;;;;1533215;76;1165;-69
2022/06/14 01:48:49;;;;;;;;;;;25.50;41.90;;;;;;1522712;76;1475;-67
2022/06/14 01:53:31;;;;;;;;;;;25.60;41.90;;;;;;1484228;78;1708;-68
2022/06/14 01:55:41;;;;;;;;;;;25.60;42.00;;;;;;1481329;78;649;-71
2022/06/14 01:57:56;;;;;;;;;;;25.60;41.90;;;;;;1487776;78;672;-67
2022/06/14 02:00:00;;;;;;;;;;;25.50;41.90;;;;;;1504183;77;1151;-67
2022/06/14 02:02:03;;;;;;;;;;;25.50;41.90;;;;;;1519716;76;669;-69
2022/06/14 02:04:38;;;;;;;;;;;25.50;41.90;;;;;;1482996;78;1932;-67
2022/06/14 02:06:57;;;;;;;;;;;25.50;41.90;;;;;;1502667;78;742;-67
2022/06/14 02:09:00;;;;;;;;;;;25.50;41.90;;;;;;1447952;81;1158;-66
2022/06/14 02:11:04;;;;;;;;;;;25.60;42.00;;;;;;1480501;76;1467;-70
2022/06/14 02:13:10;;;;;;;;;;;25.50;42.10;;;;;;1527045;76;1000;-67
2022/06/14 02:15:20;;;;;;;;;;;25.50;42.00;;;;;;1549280;76;986;-67
2022/06/14 02:17:23;;;;;;;;;;;25.50;42.00;;;;;;1543587;76;970;-68
2022/06/14 02:19:27;;;;;;;;;;;25.50;42.10;;;;;;1540188;76;1543;-68
2022/06/14 02:21:36;;;;;;;;;;;25.50;42.10;;;;;;1520301;76;1146;-69
2022/06/14 02:23:39;;;;;;;;;;;25.50;42.10;;;;;;1491582;78;642;-69
2022/06/14 02:25:43;;;;;;;;;;;25.50;42.10;;;;;;1542796;76;1903;-69
2022/06/14 02:27:49;;;;;;;;;;;25.50;42.10;;;;;;1542719;76;701;-69
2022/06/14 02:29:58;;;;;;;;;;;25.50;42.10;;;;;;1539829;74;1209;-68
2022/06/14 02:32:04;;;;;;;;;;;25.50;42.10;;;;;;1545185;76;716;-69
2022/06/14 02:34:08;;;;;;;;;;;25.50;42.10;;;;;;1545883;76;1099;-69
2022/06/14 02:36:12;;;;;;;;;;;25.40;42.10;;;;;;1547848;76;767;-69
2022/06/14 02:38:18;;;;;;;;;;;25.50;42.10;;;;;;1527436;76;700;-69
2022/06/14 02:40:21;;;;;;;;;;;25.50;42.10;;;;;;1533219;76;1126;-69
2022/06/14 02:42:25;;;;;;;;;;;25.40;42.10;;;;;;1523502;76;1894;-68
2022/06/14 02:44:40;;;;;;;;;;;25.50;42.10;;;;;;1523206;76;1930;-69
2022/06/14 02:46:48;;;;;;;;;;;25.40;42.10;;;;;;1540396;76;676;-68
2022/06/14 02:48:51;;;;;;;;;;;25.40;42.10;;;;;;1533747;76;649;-68
2022/06/14 02:51:09;;;;;;;;;;;25.50;42.10;;;;;;1537716;76;1037;-70
2022/06/14 02:53:19;;;;;;;;;;;25.50;42.10;;;;;;1514360;77;1039;-70
2022/06/14 02:55:23;;;;;;;;;;;25.50;42.10;;;;;;1516011;77;912;-69
2022/06/14 02:57:26;;;;;;;;;;;25.40;42.10;;;;;;1534124;76;675;-70
2022/06/14 02:59:33;;;;;;;;;;;25.40;42.10;;;;;;1536485;76;1153;-69
2022/06/14 03:01:36;;;;;;;;;;;25.30;42.10;;;;;;1536547;76;826;-69
2022/06/14 03:03:40;;;;;;;;;;;25.30;42.10;;;;;;1531517;76;681;-71
2022/06/14 03:05:47;;;;;;;;;;;25.30;42.10;;;;;;1533278;76;1916;-67
2022/06/14 03:07:53;;;;;;;;;;;25.30;42.10;;;;;;1534949;76;637;-70
2022/06/14 03:09:55;;;;;;;;;;;25.40;42.10;;;;;;1538056;76;1811;-70
2022/06/14 03:11:58;;;;;;;;;;;25.30;42.00;;;;;;1532414;76;701;-71
2022/06/14 03:14:02;;;;;;;;;;;25.30;42.10;;;;;;1529807;76;1796;-70
2022/06/14 03:16:12;;;;;;;;;;;25.30;42.00;;;;;;1537269;76;677;-69
2022/06/14 03:18:20;;;;;;;;;;;25.30;42.00;;;;;;1531365;76;599;-70
2022/06/14 03:20:33;;;;;;;;;;;25.40;42.10;;;;;;1529768;76;1215;-69
2022/06/14 03:22:53;;;;;;;;;;;25.30;42.10;;;;;;1530203;76;651;-70
2022/06/14 03:25:13;;;;;;;;;;;25.30;42.00;;;;;;1529291;76;1902;-71
2022/06/14 03:27:22;;;;;;;;;;;25.30;42.10;;;;;;1529438;76;705;-69
2022/06/14 03:29:38;;;;;;;;;;;25.20;42.10;;;;;;1532187;76;1831;-70
2022/06/14 03:31:41;;;;;;;;;;;25.30;42.10;;;;;;1529835;76;1899;-64
2022/06/14 03:33:47;;;;;;;;;;;25.30;42.10;;;;;;1528066;76;1197;-67
2022/06/14 03:35:50;;;;;;;;;;;25.30;42.10;;;;;;1532098;76;735;-66
2022/06/14 03:37:52;;;;;;;;;;;25.30;42.10;;;;;;1529941;76;665;-69
2022/06/14 03:39:56;;;;;;;;;;;25.20;42.00;;;;;;1531543;76;1158;-68
2022/06/14 03:41:58;;;;;;;;;;;25.20;42.10;;;;;;1530634;76;1505;-68
2022/06/14 03:44:00;;;;;;;;;;;25.30;42.10;;;;;;1535961;76;641;-66
2022/06/14 03:46:04;;;;;;;;;;;25.30;42.10;;;;;;1535241;76;1952;-67
2022/06/14 03:48:06;;;;;;;;;;;25.30;42.10;;;;;;1532981;76;564;-67
2022/06/14 03:50:13;;;;;;;;;;;25.20;42.00;;;;;;1532301;76;1150;-68
2022/06/14 03:52:33;;;;;;;;;;;25.30;42.10;;;;;;1533070;76;1423;-68
2022/06/14 03:54:53;;;;;;;;;;;25.20;42.00;;;;;;1532133;76;827;-67
2022/06/14 03:57:05;;;;;;;;;;;25.20;42.00;;;;;;1529316;76;658;-67
2022/06/14 03:59:19;;;;;;;;;;;25.20;42.10;;;;;;1537878;76;1145;-68
2022/06/14 04:01:22;;;;;;;;;;;25.20;42.10;;;;;;1536364;76;857;-68
2022/06/14 04:03:40;;;;;;;;;;;25.20;42.10;;;;;;1531380;76;644;-70
2022/06/14 04:05:59;;;;;;;;;;;25.30;42.20;;;;;;1534262;76;1932;-66
2022/06/14 04:08:11;;;;;;;;;;;25.20;42.20;;;;;;1533160;76;1486;-68
2022/06/14 04:10:15;;;;;;;;;;;25.20;42.10;;;;;;1533161;76;1781;-68
2022/06/14 04:12:22;;;;;;;;;;;25.20;42.10;;;;;;1537991;76;711;-69
2022/06/14 04:14:28;;;;;;;;;;;25.20;42.10;;;;;;1503782;78;741;-70
2022/06/14 04:16:41;;;;;;;;;;;25.30;42.10;;;;;;1506517;78;1617;-67
2022/06/14 04:18:50;;;;;;;;;;;25.20;42.10;;;;;;1485653;78;2136;-68
2022/06/14 04:20:52;;;;;;;;;;;25.20;42.10;;;;;;1510683;77;1057;-69
2022/06/14 04:23:05;;;;;;;;;;;25.20;42.10;;;;;;1510639;77;645;-66
2022/06/14 04:25:14;;;;;;;;;;;25.30;42.10;;;;;;1508933;77;1933;-65
2022/06/14 04:27:17;;;;;;;;;;;25.20;42.10;;;;;;1510032;77;720;-68
2022/06/14 04:29:21;;;;;;;;;;;25.20;42.10;;;;;;1513246;77;1222;-68
2022/06/14 04:31:30;;;;;;;;;;;25.20;42.10;;;;;;1536452;76;1207;-70
2022/06/14 04:33:33;;;;;;;;;;;25.20;42.10;;;;;;1528032;76;758;-67
2022/06/14 04:35:37;;;;;;;;;;;25.30;42.10;;;;;;1531662;76;722;-68
2022/06/14 04:37:40;;;;;;;;;;;25.30;42.00;;;;;;1530967;76;1555;-67
2022/06/14 04:39:43;;;;;;;;;;;25.20;42.00;;;;;;1536463;76;1166;-68
2022/06/14 04:41:47;;;;;;;;;;;25.20;42.00;;;;;;1532467;76;701;-68
2022/06/14 04:43:50;;;;;;;;;;;25.20;42.00;;;;;;1520112;76;656;-68
2022/06/14 04:45:57;;;;;;;;;;;25.30;42.00;;;;;;1541261;76;1936;-70
2022/06/14 04:48:00;;;;;;;;;;;25.30;42.00;;;;;;1531204;76;658;-67
2022/06/14 04:50:09;;;;;;;;;;;25.20;42.00;;;;;;1523181;76;1126;-62
2022/06/14 04:52:12;;;;;;;;;;;25.30;42.00;;;;;;1532194;76;820;-64
2022/06/14 04:54:16;;;;;;;;;;;25.40;42.00;;;;;;1523233;76;697;-66
2022/06/14 04:56:19;;;;;;;;;;;25.40;42.00;;;;;;1524351;76;959;-63
2022/06/14 04:58:23;;;;;;;;;;;25.40;42.00;;;;;;1534275;76;1743;-64
2022/06/14 05:00:27;;;;;;;;;;;25.40;41.90;;;;;;1532093;76;1158;-64
2022/06/14 05:02:30;;;;;;;;;;;25.40;41.80;;;;;;1536119;76;950;-62
2022/06/14 05:04:34;;;;;;;;;;;25.40;42.20;;;;;;1532033;76;600;-64
2022/06/14 05:06:55;;;;;;;;;;;25.40;41.90;;;;;;1527140;76;1949;-66
2022/06/14 05:08:59;;;;;;;;;;;25.50;41.80;;;;;;1527519;76;1689;-64
2022/06/14 05:11:06;;;;;;;;;;;25.50;41.80;;;;;;1530459;76;674;-65
2022/06/14 05:13:12;;;;;;;;;;;25.60;41.70;;;;;;1532339;76;710;-65
2022/06/14 05:15:22;;;;;;;;;;;25.60;41.70;;;;;;1535247;76;658;-66
2022/06/14 05:17:25;;;;;;;;;;;25.50;41.60;;;;;;1533222;76;692;-65
2022/06/14 05:19:31;;;;;;;;;;;25.60;41.70;;;;;;1531782;76;1762;-65
2022/06/14 05:21:38;;;;;;;;;;;25.60;41.60;;;;;;1530610;76;975;-65
2022/06/14 05:23:44;;;;;;;;;;;25.60;41.50;;;;;;1533355;76;1602;-65
2022/06/14 05:26:04;;;;;;;;;;;25.50;41.60;;;;;;1532512;76;1927;-65
2022/06/14 05:28:08;;;;;;;;;;;25.60;41.60;;;;;;1533204;76;709;-64
2022/06/14 05:30:15;;;;;;;;;;;25.50;41.70;;;;;;1536523;76;1181;-64
2022/06/14 05:32:18;;;;;;;;;;;25.50;41.70;;;;;;1526011;76;1387;-66
2022/06/14 05:34:31;;;;;;;;;;;25.60;41.70;;;;;;1535368;76;1795;-64
2022/06/14 05:36:34;;;;;;;;;;;25.70;41.60;;;;;;1538646;76;1784;-65
2022/06/14 05:38:38;;;;;;;;;;;25.60;41.50;;;;;;1537030;76;717;-65
2022/06/14 05:40:44;;;;;;;;;;;25.70;41.50;;;;;;1528389;76;1731;-66
2022/06/14 05:42:48;;;;;;;;;;;25.80;41.40;;;;;;1532944;76;606;-68
2022/06/14 05:44:51;;;;;;;;;;;25.80;41.30;;;;;;1530820;76;682;-69
2022/06/14 05:46:54;;;;;;;;;;;25.80;41.30;;;;;;1544167;76;1941;-69
2022/06/14 05:48:57;;;;;;;;;;;25.70;41.30;;;;;;1532887;76;588;-67
2022/06/14 05:51:00;;;;;;;;;;;25.70;41.30;;;;;;1533589;76;1014;-64
2022/06/14 05:53:06;;;;;;;;;;;25.70;41.40;;;;;;1537494;76;791;-68
2022/06/14 05:55:13;;;;;;;;;;;25.60;41.40;;;;;;1529881;76;1079;-68
2022/06/14 05:57:22;;;;;;;;;;;25.50;41.50;;;;;;1530556;76;1723;-67
2022/06/14 05:59:31;;;;;;;;;;;25.60;41.50;;;;;;1530699;75;1169;-66
2022/06/14 06:01:34;;;;;;;;;;;25.50;41.50;;;;;;1530716;76;1604;-69
2022/06/14 06:03:40;;;;;;;;;;;25.40;41.60;;;;;;1522957;76;709;-68
2022/06/14 06:05:43;;;;;;;;;;;25.50;41.50;;;;;;1488008;78;1980;-66
2022/06/14 06:07:47;;;;;;;;;;;25.40;41.60;;;;;;1531470;76;698;-67
2022/06/14 06:09:52;;;;;;;;;;;25.50;41.60;;;;;;1520300;76;1143;-67
2022/06/14 06:11:56;;;;;;;;;;;25.50;41.60;;;;;;1531557;76;635;-69
2022/06/14 06:14:05;;;;;;;;;;;25.40;41.60;;;;;;1528500;76;669;-67
2022/06/14 06:16:14;;;;;;;;;;;25.50;41.60;;;;;;1534351;76;696;-69
2022/06/14 06:18:18;;;;;;;;;;;25.40;41.60;;;;;;1528258;76;745;-69
2022/06/14 06:20:33;;;;;;;;;;;25.40;41.50;;;;;;1523166;76;1700;-67
2022/06/14 06:22:42;;;;;;;;;;;25.40;41.60;;;;;;1531122;76;695;-69
2022/06/14 06:24:46;;;;;;;;;;;25.40;41.60;;;;;;1522526;76;2105;-66
2022/06/14 06:26:49;;;;;;;;;;;25.40;41.50;;;;;;1493052;78;1932;-66
2022/06/14 06:28:55;;;;;;;;;;;25.40;41.40;;;;;;1528399;76;658;-66
2022/06/14 06:31:11;;;;;;;;;;;25.40;41.50;;;;;;1536633;76;1530;-66
2022/06/14 06:33:14;;;;;;;;;;;25.40;41.40;;;;;;1524570;76;922;-65
2022/06/14 06:35:16;;;;;;;;;;;25.40;41.40;;;;;;1534232;76;749;-66
2022/06/14 06:37:31;;;;;;;;;;;25.40;41.40;;;;;;1537344;76;676;-66
2022/06/14 06:39:35;;;;;;;;;;;25.40;41.30;;;;;;1535958;76;1153;-67
2022/06/14 06:41:50;;;;;;;;;;;25.40;41.30;;;;;;1529491;76;718;-67
2022/06/14 06:43:53;;;;;;;;;;;25.40;41.30;;;;;;1537949;76;602;-64
2022/06/14 06:45:55;;;;;;;;;;;25.40;41.30;;;;;;1528916;76;1946;-68
2022/06/14 06:48:11;;;;;;;;;;;25.40;41.30;;;;;;1529563;76;747;-67
2022/06/14 06:50:15;;;;;;;;;;;25.40;41.20;;;;;;1537139;74;3099;-70
2022/06/14 06:52:18;;;;;;;;;;;25.40;41.20;;;;;;1530309;77;725;-68
2022/06/14 06:54:22;;;;;;;;;;;25.40;41.10;;;;;;1569939;74;679;-69
2022/06/14 06:56:25;;;;;;;;;;;25.50;41.10;;;;;;1576879;74;1574;-66
2022/06/14 06:58:28;;;;;;;;;;;25.50;41.00;;;;;;1573546;74;728;-65
2022/06/14 07:00:30;;;;;;;;;;;25.40;40.90;;;;;;1581093;73;1208;-66
2022/06/14 07:02:37;;;;;;;;;;;25.50;40.80;;;;;;1595108;74;673;-68
2022/06/14 07:06:58;;;;;;;;;;;25.60;40.70;;;;;;1597333;74;1893;-63
2022/06/14 07:09:02;;;;;;;;;;;25.50;40.50;;;;;;1597375;74;738;-66
2022/06/14 07:11:04;;;;;;;;;;;25.50;40.50;;;;;;1596503;73;1122;-68
2022/06/14 07:13:13;;;;;;;;;;;25.70;40.30;;;;;;1595707;73;725;-67
2022/06/14 07:15:23;;;;;;;;;;;25.50;40.30;;;;;;1595254;74;789;-65
2022/06/14 07:17:29;;;;;;;;;;;25.60;40.20;;;;;;1598653;73;1684;-67
2022/06/14 07:19:38;;;;;;;;;;;25.60;40.20;;;;;;1595217;73;1135;-67
2022/06/14 07:21:42;;;;;;;;;;;25.60;40.10;;;;;;1592437;73;769;-67
2022/06/14 07:23:58;;;;;;;;;;;25.60;40.20;;;;;;1598133;73;645;-66
2022/06/14 07:26:18;;;;;;;;;;;25.50;40.00;;;;;;1589444;73;1940;-67
2022/06/14 07:28:21;;;;;;;;;;;25.60;39.90;;;;;;1593513;73;670;-68
2022/06/14 07:30:31;;;;;;;;;;;25.60;39.30;;;;;;1596953;73;1120;-68
2022/06/14 07:32:33;;;;;;;;;;;25.60;37.80;;;;;;1598807;73;641;-67
2022/06/14 07:34:35;;;;;;;;;;;25.60;39.30;;;;;;1598476;73;775;-67
2022/06/14 07:36:48;;;;;;;;;;;25.60;39.20;;;;;;1596777;73;757;-65
2022/06/14 07:38:51;;;;;;;;;;;25.70;38.80;;;;;;1599546;73;679;-67
2022/06/14 07:41:07;;;;;;;;;;;25.70;37.50;;;;;;1601561;73;1131;-67
2022/06/14 07:43:13;;;;;;;;;;;25.70;38.00;;;;;;1548767;74;1160;-65
2022/06/14 07:45:17;;;;;;;;;;;25.70;37.90;;;;;;1598822;73;669;-66
2022/06/14 07:47:23;;;;;;;;;;;25.70;38.10;;;;;;1600353;73;1928;-66
2022/06/14 07:49:33;;;;;;;;;;;25.80;38.10;;;;;;1596874;73;1140;-67
2022/06/14 07:51:39;;;;;;;;;;;25.80;37.60;;;;;;1598766;73;798;-66
2022/06/14 07:53:42;;;;;;;;;;;25.80;37.60;;;;;;1589746;73;1187;-65
2022/06/14 07:55:45;;;;;;;;;;;25.80;36.20;;;;;;1598474;73;753;-67
2022/06/14 07:57:47;;;;;;;;;;;25.80;37.60;;;;;;1598795;73;744;-65
2022/06/14 07:59:51;;;;;;;;;;;25.80;35.90;;;;;;1598441;73;1162;-66
2022/06/14 08:02:00;;;;;;;;;;;25.80;37.30;;;;;;1599198;73;725;-65
2022/06/14 08:04:03;;;;;;;;;;;25.90;37.20;;;;;;1598289;73;681;-66
2022/06/14 08:06:05;;;;;;;;;;;25.90;36.00;;;;;;1563809;74;1936;-65
2022/06/14 08:08:08;;;;;;;;;;;26.00;37.70;;;;;;1609713;73;798;-64
2022/06/14 08:10:14;;;;;;;;;;;26.00;37.80;;;;;;1594908;74;1127;-65
2022/06/14 08:12:26;;;;;;;;;;;26.00;37.50;;;;;;1596851;73;740;-65
2022/06/14 08:14:30;;;;;;;;;;;26.10;37.70;;;;;;1594758;74;1925;-67
2022/06/14 08:16:32;;;;;;;;;;;26.00;37.80;;;;;;1598752;73;1781;-67
2022/06/14 08:18:37;;;;;;;;;;;26.00;36.00;;;;;;1598832;73;822;-66
2022/06/14 08:20:43;;;;;;;;;;;26.00;37.20;;;;;;1599567;73;1144;-67
2022/06/14 08:22:48;;;;;;;;;;;26.00;34.50;;;;;;1563291;73;1670;-66
2022/06/14 08:24:52;;;;;;;;;;;25.90;33.50;;;;;;1594563;73;742;-66
2022/06/14 08:27:01;;;;;;;;;;;25.90;35.00;;;;;;1597102;73;1933;-66
2022/06/14 08:29:02;;;;;;;;;;;25.90;35.80;;;;;;1588254;73;1635;-67
2022/06/14 08:31:08;;;;;;;;;;;25.90;34.50;;;;;;1604578;73;1117;-64
2022/06/14 08:33:12;;;;;;;;;;;25.90;34.70;;;;;;1598056;73;1939;-67
2022/06/14 08:35:21;;;;;;;;;;;25.80;35.40;;;;;;1598008;73;784;-68
2022/06/14 08:37:25;;;;;;;;;;;25.90;35.40;;;;;;1597095;73;796;-66
2022/06/14 08:39:34;;;;;;;;;;;26.00;36.30;;;;;;1599137;73;1152;-66
2022/06/14 08:41:50;;;;;;;;;;;26.10;36.40;;;;;;1596997;73;674;-66
2022/06/14 08:43:53;;;;;;;;;;;26.10;35.20;;;;;;1591145;73;746;-65
2022/06/14 08:46:06;;;;;;;;;;;25.90;34.60;;;;;;1591488;73;1561;-66
2022/06/14 08:48:09;;;;;;;;;;;25.90;35.20;;;;;;1597800;74;1132;-67
2022/06/14 08:50:16;;;;;;;;;;;25.90;35.50;;;;;;1591883;73;1678;-65
2022/06/14 08:52:35;;;;;;;;;;;25.90;34.70;;;;;;1598088;73;806;-65
2022/06/14 08:54:38;;;;;;;;;;;25.90;33.70;;;;;;1597753;74;655;-67
2022/06/14 08:56:59;;;;;;;;;;;25.80;34.20;;;;;;1594054;73;1105;-66
2022/06/14 08:59:19;;;;;;;;;;;25.70;33.70;;;;;;1595428;73;835;-68
2022/06/14 09:01:37;;;;;;;;;;;25.70;34.70;;;;;;1593374;73;712;-65
2022/06/14 09:03:53;;;;;;;;;;;25.70;34.40;;;;;;1598139;73;675;-65
2022/06/14 09:06:13;;;;;;;;;;;25.70;33.30;;;;;;1591653;73;1122;-66
2022/06/14 09:08:22;;;;;;;;;;;25.70;34.40;;;;;;1597370;73;717;-65
2022/06/14 09:10:26;;;;;;;;;;;25.70;32.80;;;;;;1594275;73;1920;-66
2022/06/14 09:12:29;;;;;;;;;;;25.70;33.00;;;;;;1595520;74;815;-65
2022/06/14 09:14:41;;;;;;;;;;;25.70;34.20;;;;;;1596136;74;651;-67
2022/06/14 09:16:57;;;;;;;;;;;25.70;34.10;;;;;;1594531;73;919;-65
2022/06/14 09:19:06;;;;;;;;;;;25.80;34.20;;;;;;1599453;73;1573;-62
2022/06/14 09:21:12;;;;;;;;;;;25.70;34.30;;;;;;1592205;73;1127;-64
2022/06/14 09:23:28;;;;;;;;;;;25.70;32.80;;;;;;1597034;73;747;-66
2022/06/14 09:25:37;;;;;;;;;;;25.70;31.60;;;;;;1593790;73;1110;-66
2022/06/14 09:27:47;;;;;;;;;;;25.60;33.20;;;;;;1598608;73;1937;-69
2022/06/14 09:29:59;;;;;;;;;;;25.60;31.90;;;;;;1595948;74;1666;-65
2022/06/14 09:32:03;;;;;;;;;;;25.50;33.80;;;;;;1595099;73;772;-66
2022/06/14 09:34:15;;;;;;;;;;;25.50;32.40;;;;;;1598272;74;823;-65
2022/06/14 09:36:25;;;;;;;;;;;25.40;33.10;;;;;;1598836;74;647;-66
2022/06/14 09:38:37;;;;;;;;;;;25.50;33.70;;;;;;1598997;73;783;-66
2022/06/14 09:40:50;;;;;;;;;;;25.60;33.40;;;;;;1597709;73;1139;-66
2022/06/14 09:43:11;;;;;;;;;;;25.60;33.70;;;;;;1591184;73;618;-66
2022/06/14 09:45:26;;;;;;;;;;;25.70;32.70;;;;;;1596843;73;671;-63
2022/06/14 09:47:30;;;;;;;;;;;25.60;33.50;;;;;;1598232;73;1941;-65
2022/06/14 09:49:50;;;;;;;;;;;25.60;33.80;;;;;;1577095;74;1142;-64
2022/06/14 09:52:12;;;;;;;;;;;25.60;33.00;;;;;;1594952;73;769;-63
2022/06/14 09:54:22;;;;;;;;;;;25.70;33.60;;;;;;1593554;73;753;-64
2022/06/14 09:56:32;;;;;;;;;;;25.70;32.80;;;;;;1597403;73;670;-65
2022/06/14 09:58:36;;;;;;;;;;;25.70;33.80;;;;;;1600162;73;726;-65
2022/06/14 10:00:48;;;;;;;;;;;25.70;31.90;;;;;;1599415;73;1717;-65
2022/06/14 10:02:55;;;;;;;;;;;25.70;32.90;;;;;;1596543;73;753;-64
2022/06/14 10:04:58;;;;;;;;;;;25.60;33.30;;;;;;1594433;74;671;-63
2022/06/14 10:07:17;;;;;;;;;;;25.70;33.40;;;;;;1594708;73;1941;-65
2022/06/14 10:09:26;;;;;;;;;;;25.60;33.40;;;;;;1548440;75;1050;-66
2022/06/14 10:11:33;;;;;;;;;;;25.60;33.60;;;;;;1565103;73;1740;-64
2022/06/14 10:13:53;;;;;;;;;;;25.60;32.80;;;;;;1598082;73;966;-66
2022/06/14 10:16:08;;;;;;;;;;;25.60;33.40;;;;;;1597863;73;1699;-64
2022/06/14 10:18:21;;;;;;;;;;;25.70;33.40;;;;;;1598495;73;1762;-63
2022/06/14 10:20:36;;;;;;;;;;;25.70;33.30;;;;;;1596444;73;1155;-65
2022/06/14 10:22:46;;;;;;;;;;;25.70;32.10;;;;;;1559982;73;1306;-65
2022/06/14 10:24:49;;;;;;;;;;;25.50;31.90;;;;;;1505082;75;1047;-65
2022/06/14 10:29:32;;;;;;;;;;;25.50;32.90;;;;;;1551746;74;1938;-64
2022/06/14 10:31:42;;;;;;;;;;;25.50;32.80;;;;;;1571461;74;650;-65
2022/06/14 10:34:02;;;;;;;;;;;25.50;32.30;;;;;;1570409;74;753;-65
2022/06/14 10:36:20;;;;;;;;;;;25.40;33.30;;;;;;1570810;75;725;-65
2022/06/14 10:38:42;;;;;;;;;;;25.40;33.50;;;;;;1575580;74;677;-65
2022/06/14 10:40:49;;;;;;;;;;;25.40;33.60;;;;;;1571081;74;1150;-65
2022/06/14 10:43:01;;;;;;;;;;;25.50;33.60;;;;;;1574860;75;638;-66
2022/06/14 10:45:10;;;;;;;;;;;25.50;33.60;;;;;;1576045;75;671;-65
2022/06/14 10:47:14;;;;;;;;;;;25.60;32.90;;;;;;1577243;75;1930;-66
2022/06/14 10:49:17;;;;;;;;;;;25.40;33.40;;;;;;1573699;75;1802;-64
2022/06/14 10:51:33;;;;;;;;;;;25.40;33.50;;;;;;1576363;75;1073;-64
2022/06/14 10:53:37;;;;;;;;;;;25.40;33.80;;;;;;1576439;75;1134;-67
2022/06/14 10:55:40;;;;;;;;;;;25.30;34.30;;;;;;1578028;74;894;-66
2022/06/14 10:58:02;;;;;;;;;;;25.20;34.10;;;;;;1575539;75;913;-67
2022/06/14 11:00:09;;;;;;;;;;;25.20;34.30;;;;;;1564209;75;1195;-69
2022/06/14 11:02:27;;;;;;;;;;;25.30;34.30;;;;;;1570817;75;714;-68
2022/06/14 11:04:47;;;;;;;;;;;25.30;34.50;;;;;;1577091;75;2138;-69
2022/06/14 11:06:53;;;;;;;;;;;25.40;35.10;;;;;;1493888;79;1934;-69
2022/06/14 11:08:56;;;;;;;;;;;25.40;35.00;;;;;;1520054;75;1769;-65
2022/06/14 11:11:00;;;;;;;;;;;25.40;35.00;;;;;;1575577;75;1972;-66
2022/06/14 11:13:10;;;;;;;;;;;25.40;35.20;;;;;;1577118;75;769;-67
2022/06/14 11:15:28;;;;;;;;;;;25.30;35.10;;;;;;1576994;75;827;-68
2022/06/14 11:17:32;;;;;;;;;;;25.30;35.10;;;;;;1575027;75;687;-65
2022/06/14 11:19:35;;;;;;;;;;;25.30;34.90;;;;;;1518894;75;1113;-68
2022/06/14 11:21:39;;;;;;;;;;;25.40;35.10;;;;;;1576928;75;974;-68
2022/06/14 11:23:45;;;;;;;;;;;25.40;35.50;;;;;;1577308;75;1481;-70
2022/06/14 11:25:49;;;;;;;;;;;25.30;35.10;;;;;;1579471;74;698;-71
2022/06/14 11:28:07;;;;;;;;;;;25.30;36.00;;;;;;1576811;75;1943;-69
2022/06/14 11:30:11;;;;;;;;;;;25.20;35.80;;;;;;1577403;75;1206;-66
2022/06/14 11:32:20;;;;;;;;;;;25.40;35.50;;;;;;1577098;75;1150;-69
2022/06/14 11:34:40;;;;;;;;;;;25.50;35.30;;;;;;1554817;75;1008;-68
2022/06/14 11:36:44;;;;;;;;;;;25.60;35.20;;;;;;1576616;75;662;-66
2022/06/14 11:39:04;;;;;;;;;;;25.60;34.30;;;;;;1576854;75;761;-67
2022/06/14 11:41:07;;;;;;;;;;;25.50;35.00;;;;;;1570090;75;1115;-68
2022/06/14 11:43:13;;;;;;;;;;;25.40;34.70;;;;;;1577741;75;707;-67
2022/06/14 11:45:29;;;;;;;;;;;25.40;34.80;;;;;;1576839;75;1727;-67
2022/06/14 11:47:38;;;;;;;;;;;25.30;35.00;;;;;;1575664;75;1953;-68
2022/06/14 11:49:41;;;;;;;;;;;25.40;34.80;;;;;;1577570;75;1896;-68
2022/06/14 11:51:48;;;;;;;;;;;25.30;34.80;;;;;;1576546;75;736;-67
2022/06/14 11:54:09;;;;;;;;;;;25.40;34.80;;;;;;1574760;75;789;-67
2022/06/14 11:56:31;;;;;;;;;;;25.30;34.30;;;;;;1576164;75;743;-67
2022/06/14 11:58:37;;;;;;;;;;;25.20;34.50;;;;;;1576080;75;621;-68
2022/06/14 12:00:43;;;;;;;;;;;25.30;34.20;;;;;;1576551;75;1530;-69
2022/06/14 12:03:03;;;;;;;;;;;25.20;34.60;;;;;;1575236;75;1908;-68
2022/06/14 12:05:13;;;;;;;;;;;25.20;34.70;;;;;;1575750;75;778;-67
2022/06/14 12:07:33;;;;;;;;;;;25.30;34.90;;;;;;1570959;75;1930;-67
2022/06/14 12:09:49;;;;;;;;;;;25.30;35.00;;;;;;1573119;75;1160;-66
2022/06/14 12:11:52;;;;;;;;;;;25.20;35.00;;;;;;1569633;75;1091;-66
2022/06/14 12:14:08;;;;;;;;;;;25.30;35.30;;;;;;1573969;75;673;-66
2022/06/14 12:16:17;;;;;;;;;;;25.40;35.20;;;;;;1572098;74;1812;-65
2022/06/14 12:18:20;;;;;;;;;;;25.30;35.30;;;;;;1561918;75;1636;-66
2022/06/14 12:20:23;;;;;;;;;;;25.30;34.40;;;;;;1577341;75;1161;-66
2022/06/14 12:22:31;;;;;;;;;;;25.20;35.10;;;;;;1567194;75;671;-66
2022/06/14 12:26:56;;;;;;;;;;;25.30;35.50;;;;;;1576217;74;777;-66
2022/06/14 12:28:59;;;;;;;;;;;25.20;35.20;;;;;;1568419;75;2080;-66
2022/06/14 12:31:06;;;;;;;;;;;25.30;35.60;;;;;;1577105;75;1834;-67
2022/06/14 12:33:09;;;;;;;;;;;25.30;35.70;;;;;;1576330;75;1898;-66
2022/06/14 12:35:13;;;;;;;;;;;25.20;35.80;;;;;;1572335;75;1901;-65
2022/06/14 12:37:33;;;;;;;;;;;25.30;35.90;;;;;;1576793;75;1946;-66
2022/06/14 12:39:36;;;;;;;;;;;25.40;36.00;;;;;;1577741;75;1155;-65
2022/06/14 12:41:42;;;;;;;;;;;25.40;35.90;;;;;;1578023;75;630;-66
2022/06/14 12:43:51;;;;;;;;;;;25.30;35.90;;;;;;1576481;75;734;-65
2022/06/14 12:45:57;;;;;;;;;;;25.40;36.00;;;;;;1574992;75;784;-67
2022/06/14 12:48:17;;;;;;;;;;;25.40;36.00;;;;;;1577480;75;1933;-66